createdAt,value
2022-09-04T00:00:48.591Z,27.20
2022-09-04T00:03:33.165Z,27.80
2022-09-04T00:06:13.158Z,28.90
2022-09-04T00:09:07.516Z,28.40
2022-09-04T00:11:50.304Z,28.30
2022-09-04T00:14:41.330Z,28.10
2022-09-04T00:17:21.218Z,27.90
2022-09-04T00:19:59.562Z,28.20
2022-09-04T00:22:43.156Z,27.90
2022-09-04T00:25:26.094Z,28.30
2022-09-04T00:28:05.996Z,29.00
2022-09-04T00:30:50.319Z,28.70
2022-09-04T00:33:28.343Z,28.80
2022-09-04T00:36:05.474Z,28.80
2022-09-04T00:38:45.902Z,29.00
2022-09-04T00:41:28.195Z,28.90
2022-09-04T00:44:28.373Z,29.90
2022-09-04T00:47:20.411Z,29.90
2022-09-04T00:50:14.729Z,30.20
2022-09-04T00:53:02.619Z,30.20
2022-09-04T00:55:56.754Z,30.20
2022-09-04T00:58:46.698Z,29.90
2022-09-04T01:01:22.453Z,29.90
2022-09-04T01:04:21.465Z,29.80
2022-09-04T01:07:06.027Z,29.90
2022-09-04T01:10:04.481Z,30.00
2022-09-04T01:12:47.315Z,29.50
2022-09-04T01:15:27.218Z,29.80
2022-09-04T01:18:10.292Z,30.60
2022-09-04T01:20:57.360Z,31.20
2022-09-04T01:23:46.283Z,31.20
2022-09-04T01:26:28.741Z,30.70
2022-09-04T01:29:17.289Z,30.90
2022-09-04T01:31:55.548Z,32.00
2022-09-04T01:34:42.323Z,32.40
2022-09-04T01:37:28.495Z,31.80
2022-09-04T01:40:18.272Z,32.60
2022-09-04T01:43:00.200Z,33.10
2022-09-04T01:45:46.552Z,32.60
2022-09-04T01:48:21.509Z,33.10
2022-09-04T01:50:54.769Z,33.80
2022-09-04T01:53:28.095Z,32.90
2022-09-04T01:56:14.452Z,32.90
2022-09-04T01:58:56.878Z,33.40
2022-09-04T02:01:38.551Z,33.10
2022-09-04T02:04:20.249Z,32.50
2022-09-04T02:07:03.902Z,32.80
2022-09-04T02:09:49.751Z,32.50
2022-09-04T02:12:35.929Z,33.60
2022-09-04T02:15:13.837Z,33.80
2022-09-04T02:17:55.581Z,33.50
2022-09-04T02:20:32.606Z,33.50
2022-09-04T02:23:17.204Z,33.50
2022-09-04T02:25:58.814Z,33.80
2022-09-04T02:28:43.655Z,33.70
2022-09-04T02:31:23.116Z,34.40
2022-09-04T02:34:06.721Z,34.70
2022-09-04T02:36:44.152Z,34.70
2022-09-04T02:39:30.850Z,35.50
2022-09-04T02:42:13.307Z,34.80
2022-09-04T02:44:59.143Z,35.10
2022-09-04T02:47:43.036Z,35.80
2022-09-04T02:50:30.014Z,36.40
2022-09-04T02:53:18.272Z,36.40
2022-09-04T02:56:14.161Z,36.20
2022-09-04T02:59:07.725Z,35.50
2022-09-04T03:01:49.988Z,35.20
2022-09-04T03:04:37.257Z,35.30
2022-09-04T03:07:15.617Z,35.80
2022-09-04T03:09:51.059Z,35.90
2022-09-04T03:12:33.507Z,36.50
2022-09-04T03:15:15.758Z,35.90
2022-09-04T03:17:53.476Z,35.70
2022-09-04T03:20:32.533Z,36.20
2022-09-04T03:23:19.397Z,35.90
2022-09-04T03:26:05.256Z,35.80
2022-09-04T03:28:46.729Z,36.50
2022-09-04T03:31:29.762Z,37.10
2022-09-04T03:34:29.624Z,36.60
2022-09-04T03:37:23.747Z,36.50
2022-09-04T03:40:19.076Z,36.20
2022-09-04T03:43:10.960Z,35.80
2022-09-04T03:45:56.138Z,35.90
2022-09-04T03:48:53.130Z,36.30
2022-09-04T03:51:30.578Z,36.80
2022-09-04T03:54:14.077Z,37.00
2022-09-04T03:57:19.759Z,37.20
2022-09-04T04:00:06.116Z,36.90
2022-09-04T04:03:01.503Z,37.00
2022-09-04T04:05:50.164Z,37.10
2022-09-04T04:08:41.660Z,36.60
2022-09-04T04:11:43.245Z,36.60
2022-09-04T04:14:38.269Z,36.70
2022-09-04T04:17:34.341Z,36.70
2022-09-04T04:20:22.083Z,36.50
2022-09-04T04:23:17.902Z,36.70
2022-09-04T04:26:07.697Z,37.30
2022-09-04T04:29:08.756Z,37.30
2022-09-04T04:32:11.277Z,36.80
2022-09-04T04:35:03.637Z,37.20
2022-09-04T04:37:55.661Z,37.00
2022-09-04T04:40:47.999Z,36.70
2022-09-04T04:43:26.614Z,37.00
2022-09-04T04:46:08.084Z,36.70
2022-09-04T04:49:08.793Z,36.90
2022-09-04T04:51:56.805Z,37.30
2022-09-04T04:54:51.339Z,37.50
2022-09-04T04:57:32.775Z,37.70
2022-09-04T05:00:22.848Z,37.60
2022-09-04T05:03:09.094Z,37.60
2022-09-04T05:05:53.972Z,37.50
2022-09-04T05:08:36.959Z,38.10
2022-09-04T05:11:21.782Z,38.10
2022-09-04T05:14:06.016Z,37.90
2022-09-04T05:16:54.863Z,37.40
2022-09-04T05:19:35.558Z,37.30
2022-09-04T05:22:25.667Z,37.40
2022-09-04T05:25:17.459Z,37.20
2022-09-04T05:28:02.834Z,36.90
2022-09-04T05:30:43.376Z,36.60
2022-09-04T05:33:24.103Z,36.90
2022-09-04T05:36:06.256Z,37.00
2022-09-04T05:38:45.272Z,37.30
2022-09-04T05:41:33.437Z,36.90
2022-09-04T05:44:19.605Z,36.90
2022-09-04T05:47:06.023Z,37.00
2022-09-04T05:50:09.978Z,36.60
2022-09-04T05:53:01.841Z,36.60
2022-09-04T05:55:57.512Z,36.70
2022-09-04T05:58:53.135Z,35.70
2022-09-04T06:01:41.654Z,35.40
2022-09-04T06:04:49.214Z,35.20
2022-09-04T06:07:27.319Z,35.70
2022-09-04T06:10:14.330Z,35.60
2022-09-04T06:13:13.873Z,35.50
2022-09-04T06:16:03.910Z,35.40
2022-09-04T06:19:00.714Z,35.30
2022-09-04T06:22:14.104Z,35.90
2022-09-04T06:25:03.613Z,35.50
2022-09-04T06:28:02.441Z,35.40
2022-09-04T06:30:49.869Z,35.10
2022-09-04T06:33:41.360Z,35.30
2022-09-04T06:36:24.912Z,35.00
2022-09-04T06:39:16.843Z,35.30
2022-09-04T06:42:17.004Z,35.60
2022-09-04T06:45:10.300Z,35.40
2022-09-04T06:47:59.118Z,35.50
2022-09-04T06:50:41.143Z,35.60
2022-09-04T06:53:29.941Z,35.50
2022-09-04T06:56:16.984Z,35.60
2022-09-04T06:59:14.848Z,35.60
2022-09-04T07:02:04.395Z,36.00
2022-09-04T07:04:49.043Z,35.50
2022-09-04T07:07:28.416Z,35.30
2022-09-04T07:10:10.200Z,35.40
2022-09-04T07:13:19.335Z,35.60
2022-09-04T07:16:10.516Z,35.60
2022-09-04T07:19:08.823Z,35.40
2022-09-04T07:21:59.085Z,35.60
2022-09-04T07:25:05.007Z,34.70
2022-09-04T07:27:55.762Z,34.60
2022-09-04T07:30:31.414Z,34.50
2022-09-04T07:33:06.842Z,34.20
2022-09-04T07:35:54.851Z,34.50
2022-09-04T07:38:37.671Z,34.30
2022-09-04T07:41:25.586Z,34.50
2022-09-04T07:44:08.017Z,34.40
2022-09-04T07:46:44.934Z,34.00
2022-09-04T07:49:27.192Z,33.70
2022-09-04T07:52:11.762Z,33.80
2022-09-04T07:55:05.585Z,33.60
2022-09-04T07:58:01.460Z,34.00
2022-09-04T08:00:46.021Z,34.10
2022-09-04T08:03:56.404Z,33.10
2022-09-04T08:06:35.777Z,33.10
2022-09-04T08:09:28.475Z,33.10
2022-09-04T08:12:31.853Z,33.00
2022-09-04T08:15:17.489Z,32.80
2022-09-04T08:18:25.181Z,32.40
2022-09-04T08:21:12.607Z,32.60
2022-09-04T08:24:19.344Z,32.10
2022-09-04T08:27:15.709Z,32.00
2022-09-04T08:30:04.074Z,31.80
2022-09-04T08:33:10.200Z,31.70
2022-09-04T08:35:53.432Z,31.30
2022-09-04T08:38:41.764Z,31.60
2022-09-04T08:41:48.328Z,30.90
2022-09-04T08:45:03.193Z,30.80
2022-09-04T08:48:08.040Z,31.00
2022-09-04T08:51:18.592Z,30.10
2022-09-04T08:54:31.366Z,29.80
2022-09-04T08:57:43.522Z,30.10
2022-09-04T09:00:16.609Z,29.80
2022-09-04T09:03:29.624Z,29.30
2022-09-04T09:06:36.057Z,28.70
2022-09-04T09:10:06.149Z,28.80
2022-09-04T09:13:03.419Z,28.80
2022-09-04T09:16:02.965Z,29.10
2022-09-04T09:18:40.611Z,28.60
2022-09-04T09:21:33.611Z,28.10
2022-09-04T09:24:30.569Z,29.10
2022-09-04T09:27:33.644Z,28.20
2022-09-04T09:30:30.227Z,28.00
2022-09-04T09:33:52.760Z,28.20
2022-09-04T09:36:52.775Z,27.40
2022-09-04T09:40:14.629Z,27.60
2022-09-04T09:43:30.614Z,27.80
2022-09-04T09:46:25.776Z,27.20
2022-09-04T09:49:40.348Z,27.20
2022-09-04T09:52:43.576Z,26.90
2022-09-04T09:55:44.537Z,26.60
2022-09-04T09:59:20.122Z,26.30
2022-09-04T10:02:44.983Z,26.00
2022-09-04T10:05:55.672Z,25.50
2022-09-04T10:08:53.279Z,25.20
2022-09-04T10:11:56.099Z,24.90
2022-09-04T10:15:05.804Z,25.40
2022-09-04T10:18:18.275Z,25.20
2022-09-04T10:21:26.363Z,24.80
2022-09-04T10:24:26.909Z,25.10
2022-09-04T10:27:43.758Z,24.80
2022-09-04T10:30:22.357Z,24.40
2022-09-04T10:33:19.305Z,24.50
2022-09-04T10:36:25.741Z,24.60
2022-09-04T10:39:35.741Z,24.70
2022-09-04T10:42:31.410Z,24.70
2022-09-04T10:45:21.473Z,24.00
2022-09-04T10:48:28.739Z,23.50
2022-09-04T10:51:22.162Z,23.60
2022-09-04T10:54:14.855Z,23.80
2022-09-04T10:57:14.500Z,23.20
2022-09-04T11:00:07.182Z,23.10
2022-09-04T11:03:20.230Z,21.80
2022-09-04T11:06:17.364Z,21.60
2022-09-04T11:09:33.770Z,21.20
2022-09-04T11:12:40.946Z,20.90
2022-09-04T11:15:50.484Z,21.70
2022-09-04T11:19:02.457Z,21.30
2022-09-04T11:22:20.077Z,20.60
2022-09-04T11:25:29.350Z,20.60
2022-09-04T11:28:40.959Z,20.60
2022-09-04T11:31:40.377Z,21.20
2022-09-04T11:34:57.228Z,20.80
2022-09-04T11:38:06.443Z,21.00
2022-09-04T11:41:10.141Z,21.20
2022-09-04T11:44:07.488Z,20.80
2022-09-04T11:47:13.214Z,21.50
2022-09-04T11:50:16.513Z,21.70
2022-09-04T11:53:34.246Z,21.60
2022-09-04T11:56:28.934Z,21.70
2022-09-04T11:59:28.582Z,21.30
2022-09-04T12:02:48.258Z,21.60
2022-09-04T12:05:40.859Z,21.60
2022-09-04T12:08:51.013Z,21.90
2022-09-04T12:12:14.688Z,21.70
2022-09-04T12:15:18.821Z,21.30
2022-09-04T12:18:27.873Z,21.10
2022-09-04T12:21:58.163Z,21.30
2022-09-04T12:24:51.307Z,21.10
2022-09-04T12:27:58.729Z,21.10
2022-09-04T12:30:50.259Z,21.20
2022-09-04T12:34:01.618Z,19.90
2022-09-04T12:37:12.471Z,19.00
2022-09-04T12:40:09.566Z,18.20
2022-09-04T12:42:57.496Z,18.00
2022-09-04T12:45:46.631Z,17.80
2022-09-04T12:48:39.526Z,18.10
2022-09-04T12:51:26.706Z,18.30
2022-09-04T12:54:31.470Z,18.90
2022-09-04T12:57:31.515Z,18.10
2022-09-04T13:00:12.414Z,17.60
2022-09-04T13:03:05.444Z,16.90
2022-09-04T13:06:07.089Z,17.10
2022-09-04T13:08:57.727Z,17.00
2022-09-04T13:11:55.636Z,17.60
2022-09-04T13:14:57.913Z,17.80
2022-09-04T13:17:44.504Z,17.00
2022-09-04T13:20:39.186Z,17.30
2022-09-04T13:23:29.110Z,17.00
2022-09-04T13:26:22.064Z,15.80
2022-09-04T13:29:16.424Z,15.70
2022-09-04T13:32:22.516Z,15.40
2022-09-04T13:35:25.524Z,14.70
2022-09-04T13:38:29.849Z,14.10
2022-09-04T13:41:50.969Z,14.30
2022-09-04T13:44:52.688Z,15.40
2022-09-04T13:47:32.384Z,15.50
2022-09-04T13:50:17.712Z,15.70
2022-09-04T13:53:11.737Z,15.80
2022-09-04T13:55:51.137Z,16.40
2022-09-04T13:58:34.743Z,16.40
2022-09-04T14:01:29.351Z,17.20
2022-09-04T14:04:38.160Z,17.80
2022-09-04T14:07:34.998Z,17.70
2022-09-04T14:18:32.091Z,17.70
2022-09-04T14:24:54.824Z,18.20
2022-09-04T14:28:12.082Z,17.80
2022-09-04T14:34:39.376Z,17.80
2022-09-04T14:42:28.933Z,18.20
2022-09-04T15:10:25.816Z,18.50
2022-09-04T15:26:06.774Z,17.70
2022-09-04T15:29:28.129Z,18.00
2022-09-04T15:33:03.655Z,18.40
2022-09-04T15:40:17.727Z,17.40
2022-09-04T15:43:41.716Z,17.70
2022-09-04T16:00:08.508Z,17.30
2022-09-04T16:08:16.716Z,17.90
2022-09-04T16:11:40.905Z,17.50
2022-09-04T16:14:22.658Z,18.40
2022-09-04T16:16:57.289Z,18.90
2022-09-04T16:23:52.622Z,18.40
2022-09-04T16:27:18.806Z,18.00
2022-09-04T16:30:07.633Z,18.10
2022-09-04T16:33:25.001Z,18.40
2022-09-04T16:36:08.844Z,18.40
2022-09-04T16:38:55.511Z,18.50
2022-09-04T16:41:38.903Z,18.70
2022-09-04T16:44:26.260Z,18.70
2022-09-04T16:47:08.203Z,19.00
2022-09-04T16:49:47.162Z,19.50
2022-09-04T16:52:45.144Z,19.80
2022-09-04T16:55:21.559Z,20.00
2022-09-04T16:58:02.287Z,20.40
2022-09-04T17:00:32.643Z,20.40
2022-09-04T17:03:10.516Z,20.60
2022-09-04T17:05:46.923Z,20.60
2022-09-04T17:08:19.565Z,20.40
2022-09-04T17:10:54.665Z,21.00
2022-09-04T17:13:30.685Z,21.00
2022-09-04T17:16:18.706Z,21.00
2022-09-04T17:18:56.423Z,20.50
2022-09-04T17:27:19.244Z,20.70
2022-09-04T17:28:56.116Z,20.70
2022-09-04T17:29:22.448Z,21.00
2022-09-04T17:30:40.928Z,20.90
2022-09-04T17:40:31.910Z,20.70
2022-09-04T17:40:53.466Z,21.40
2022-09-04T17:40:56.468Z,21.40
2022-09-04T17:42:09.280Z,21.30
2022-09-04T17:44:48.745Z,21.60
2022-09-04T17:47:28.472Z,21.70
2022-09-04T17:49:58.246Z,22.00
2022-09-04T17:52:31.046Z,21.80
2022-09-04T17:55:03.639Z,22.10
2022-09-04T17:57:47.185Z,21.80
2022-09-04T18:00:20.562Z,22.20
2022-09-04T18:02:56.256Z,22.50
2022-09-04T18:05:29.148Z,22.30
2022-09-04T18:08:11.182Z,22.60
2022-09-04T18:10:51.956Z,22.70
2022-09-04T18:13:37.611Z,22.90
2022-09-04T18:16:18.105Z,23.00
2022-09-04T18:18:50.795Z,23.20
2022-09-04T18:21:26.170Z,23.10
2022-09-04T18:24:01.984Z,23.30
2022-09-04T18:26:40.801Z,23.40
2022-09-04T18:33:05.366Z,23.20
2022-09-04T18:37:11.415Z,23.80
2022-09-04T18:37:18.215Z,24.20
2022-09-04T18:38:37.610Z,24.20
2022-09-04T18:45:42.354Z,24.30
2022-09-04T18:50:33.984Z,24.50
2022-09-04T18:50:39.755Z,24.60
2022-09-04T18:50:46.125Z,24.80
2022-09-04T18:53:06.231Z,24.60
2022-09-04T18:55:43.416Z,24.90
2022-09-04T18:58:46.173Z,24.60
2022-09-04T19:01:27.197Z,25.00
2022-09-04T19:03:58.069Z,25.00
2022-09-04T19:06:34.243Z,24.80
2022-09-04T19:09:11.376Z,25.10
2022-09-04T19:11:47.184Z,25.20
2022-09-04T19:14:19.918Z,25.40
2022-09-04T19:16:51.436Z,25.70
2022-09-04T19:19:26.054Z,25.70
2022-09-04T19:22:07.220Z,25.70
2022-09-04T19:24:41.852Z,25.80
2022-09-04T19:27:27.510Z,26.30
2022-09-04T19:30:18.340Z,26.00
2022-09-04T19:33:06.079Z,26.20
2022-09-04T19:35:38.267Z,26.10
2022-09-04T19:42:42.092Z,26.10
2022-09-04T19:45:54.628Z,26.50
2022-09-04T19:46:09.470Z,26.50
2022-09-04T19:47:05.130Z,26.80
2022-09-04T19:53:23.013Z,27.00
2022-09-04T19:53:32.833Z,26.90
2022-09-04T19:55:40.061Z,26.60
2022-09-04T19:58:11.764Z,27.10
2022-09-04T20:00:47.449Z,26.90
2022-09-04T20:03:29.589Z,27.10
2022-09-04T20:06:21.213Z,27.10
2022-09-04T20:08:59.863Z,27.30
2022-09-04T20:11:35.733Z,27.30
2022-09-04T20:14:14.759Z,27.30
2022-09-04T20:16:55.033Z,27.60
2022-09-04T20:19:31.353Z,27.90
2022-09-04T20:22:03.735Z,27.60
2022-09-04T20:24:39.783Z,28.10
2022-09-04T20:27:15.741Z,28.60
2022-09-04T20:29:52.404Z,27.80
2022-09-04T20:32:28.989Z,28.10
2022-09-04T20:35:13.075Z,28.00
2022-09-04T20:37:51.588Z,28.40
2022-09-04T20:40:30.764Z,28.20
2022-09-04T20:43:12.991Z,28.20
2022-09-04T20:49:35.306Z,28.30
2022-09-04T20:52:48.680Z,28.30
2022-09-04T20:53:00.199Z,28.60
2022-09-04T20:55:08.095Z,28.60
2022-09-04T21:03:12.254Z,28.50
2022-09-04T21:03:20.594Z,28.70
2022-09-04T21:04:03.061Z,28.30
2022-09-04T21:06:39.793Z,28.90
2022-09-04T21:09:22.477Z,28.90
2022-09-04T21:11:55.474Z,28.80
2022-09-04T21:14:36.557Z,29.10
2022-09-04T21:17:35.301Z,29.20
2022-09-04T21:20:19.245Z,29.20
2022-09-04T21:23:08.766Z,29.20
2022-09-04T21:25:46.930Z,29.30
2022-09-04T21:28:29.883Z,29.70
2022-09-04T21:31:09.589Z,29.40
2022-09-04T21:33:46.330Z,29.60
2022-09-04T21:36:26.584Z,30.00
2022-09-04T21:39:24.960Z,30.00
2022-09-04T21:42:38.129Z,30.20
2022-09-04T21:45:33.380Z,30.00
2022-09-04T21:48:18.515Z,30.40
2022-09-04T21:51:07.739Z,30.00
2022-09-04T21:54:23.293Z,30.30
2022-09-04T22:02:29.947Z,30.10
2022-09-04T22:02:35.691Z,30.40
2022-09-04T22:03:20.028Z,30.60
2022-09-04T22:05:56.361Z,30.90
2022-09-04T22:13:27.261Z,30.70
2022-09-04T22:13:37.629Z,30.90
2022-09-04T22:14:57.324Z,31.00
2022-09-04T22:17:58.698Z,30.90
2022-09-04T22:20:47.619Z,30.80
2022-09-04T22:23:54.096Z,30.60
2022-09-04T22:26:51.749Z,30.40
2022-09-04T22:29:39.310Z,30.90
2022-09-04T22:32:32.569Z,31.20
2022-09-04T22:35:35.978Z,31.30
2022-09-04T22:38:34.191Z,31.80
2022-09-04T22:41:33.546Z,31.80
2022-09-04T22:44:16.322Z,31.80
2022-09-04T22:47:25.863Z,32.00
2022-09-04T22:50:20.046Z,31.60
2022-09-04T22:53:15.575Z,31.80
2022-09-04T22:56:01.132Z,31.70
2022-09-04T22:59:27.043Z,31.90
2022-09-04T23:02:17.288Z,32.10
2022-09-04T23:04:59.616Z,31.70
2022-09-04T23:10:34.022Z,32.00
2022-09-04T23:13:47.121Z,32.00
2022-09-04T23:14:08.881Z,32.10
2022-09-04T23:16:59.216Z,32.30
2022-09-04T23:26:31.548Z,32.20
2022-09-04T23:26:42.858Z,32.10
2022-09-04T23:26:50.719Z,32.60
2022-09-04T23:29:27.040Z,32.30
2022-09-04T23:32:13.227Z,32.30
2022-09-04T23:35:14.310Z,32.40
2022-09-04T23:38:02.218Z,32.90
2022-09-04T23:40:41.976Z,33.30
2022-09-04T23:43:45.543Z,32.90
2022-09-04T23:46:40.287Z,33.00
2022-09-04T23:49:50.697Z,33.20
2022-09-04T23:52:27.336Z,33.30
2022-09-04T23:55:20.465Z,33.20
2022-09-04T23:57:53.512Z,32.90
